sensor_id;sensor_type;location;lat;lon;timestamp;temperature;humidity
78516;SHT31;67815;51.990;5.688;2023-03-12T00:01:53;4.6;60.4
78516;SHT31;67815;51.990;5.688;2023-03-12T00:04:23;4.7;60.4
78516;SHT31;67815;51.990;5.688;2023-03-12T00:06:53;4.7;60.9
78516;SHT31;67815;51.990;5.688;2023-03-12T00:09:23;4.7;61.1
78516;SHT31;67815;51.990;5.688;2023-03-12T00:11:52;4.7;61.4
78516;SHT31;67815;51.990;5.688;2023-03-12T00:14:22;4.7;60.4
78516;SHT31;67815;51.990;5.688;2023-03-12T00:16:51;4.8;60.8
78516;SHT31;67815;51.990;5.688;2023-03-12T00:19:22;4.8;60.5
78516;SHT31;67815;51.990;5.688;2023-03-12T00:21:54;4.8;60.5
78516;SHT31;67815;51.990;5.688;2023-03-12T00:24:25;4.8;60.5
78516;SHT31;67815;51.990;5.688;2023-03-12T00:26:55;4.8;60.2
78516;SHT31;67815;51.990;5.688;2023-03-12T00:29:25;4.9;60.4
78516;SHT31;67815;51.990;5.688;2023-03-12T00:31:54;4.9;60.8
78516;SHT31;67815;51.990;5.688;2023-03-12T00:34:24;4.9;60.4
78516;SHT31;67815;51.990;5.688;2023-03-12T00:36:54;4.9;60.0
78516;SHT31;67815;51.990;5.688;2023-03-12T00:39:23;4.9;60.3
78516;SHT31;67815;51.990;5.688;2023-03-12T00:41:53;5.0;60.4
78516;SHT31;67815;51.990;5.688;2023-03-12T00:44:23;5.0;60.7
78516;SHT31;67815;51.990;5.688;2023-03-12T00:46:53;5.0;60.3
78516;SHT31;67815;51.990;5.688;2023-03-12T00:49:22;5.0;60.1
78516;SHT31;67815;51.990;5.688;2023-03-12T00:51:52;5.0;60.1
78516;SHT31;67815;51.990;5.688;2023-03-12T00:54:22;5.0;60.3
78516;SHT31;67815;51.990;5.688;2023-03-12T00:56:52;5.1;60.0
78516;SHT31;67815;51.990;5.688;2023-03-12T00:59:21;5.1;60.0
78516;SHT31;67815;51.990;5.688;2023-03-12T01:01:51;5.1;60.3
78516;SHT31;67815;51.990;5.688;2023-03-12T01:04:21;5.1;60.4
78516;SHT31;67815;51.990;5.688;2023-03-12T01:06:52;5.1;59.9
78516;SHT31;67815;51.990;5.688;2023-03-12T01:09:23;5.1;60.0
78516;SHT31;67815;51.990;5.688;2023-03-12T01:11:52;5.1;60.7
78516;SHT31;67815;51.990;5.688;2023-03-12T01:14:22;5.1;59.7
78516;SHT31;67815;51.990;5.688;2023-03-12T01:16:53;5.1;60.0
78516;SHT31;67815;51.990;5.688;2023-03-12T01:19:23;5.1;59.9
78516;SHT31;67815;51.990;5.688;2023-03-12T01:21:53;5.1;59.9
78516;SHT31;67815;51.990;5.688;2023-03-12T01:24:23;5.1;60.1
78516;SHT31;67815;51.990;5.688;2023-03-12T01:26:52;5.1;59.9
78516;SHT31;67815;51.990;5.688;2023-03-12T01:29:23;5.1;60.5
78516;SHT31;67815;51.990;5.688;2023-03-12T01:31:52;5.1;61.3
78516;SHT31;67815;51.990;5.688;2023-03-12T01:34:22;5.0;60.3
78516;SHT31;67815;51.990;5.688;2023-03-12T01:36:51;5.0;60.3
78516;SHT31;67815;51.990;5.688;2023-03-12T01:39:22;5.0;60.6
78516;SHT31;67815;51.990;5.688;2023-03-12T01:41:52;5.0;60.3
78516;SHT31;67815;51.990;5.688;2023-03-12T01:44:24;5.0;60.7
78516;SHT31;67815;51.990;5.688;2023-03-12T01:46:54;5.0;60.6
78516;SHT31;67815;51.990;5.688;2023-03-12T01:49:27;5.0;60.6
78516;SHT31;67815;51.990;5.688;2023-03-12T01:52:02;5.0;61.0
78516;SHT31;67815;51.990;5.688;2023-03-12T01:54:38;5.0;61.3
78516;SHT31;67815;51.990;5.688;2023-03-12T01:57:12;5.0;61.5
78516;SHT31;67815;51.990;5.688;2023-03-12T01:59:47;5.0;61.3
78516;SHT31;67815;51.990;5.688;2023-03-12T02:02:19;5.0;61.0
78516;SHT31;67815;51.990;5.688;2023-03-12T02:05:02;5.0;61.4
78516;SHT31;67815;51.990;5.688;2023-03-12T02:07:35;5.0;61.0
78516;SHT31;67815;51.990;5.688;2023-03-12T02:10:06;5.0;61.0
78516;SHT31;67815;51.990;5.688;2023-03-12T02:12:35;5.0;61.1
78516;SHT31;67815;51.990;5.688;2023-03-12T02:15:09;5.0;61.1
78516;SHT31;67815;51.990;5.688;2023-03-12T02:17:40;5.0;60.9
78516;SHT31;67815;51.990;5.688;2023-03-12T02:20:14;5.0;61.1
78516;SHT31;67815;51.990;5.688;2023-03-12T02:22:51;5.0;61.5
78516;SHT31;67815;51.990;5.688;2023-03-12T02:25:33;5.0;60.6
78516;SHT31;67815;51.990;5.688;2023-03-12T02:28:08;5.0;60.9
78516;SHT31;67815;51.990;5.688;2023-03-12T02:30:41;5.0;61.5
78516;SHT31;67815;51.990;5.688;2023-03-12T02:33:11;5.0;61.0
78516;SHT31;67815;51.990;5.688;2023-03-12T02:35:44;5.0;60.7
78516;SHT31;67815;51.990;5.688;2023-03-12T02:38:33;5.0;60.9
78516;SHT31;67815;51.990;5.688;2023-03-12T02:41:09;5.1;60.7
78516;SHT31;67815;51.990;5.688;2023-03-12T02:43:40;5.1;60.2
78516;SHT31;67815;51.990;5.688;2023-03-12T02:46:12;5.1;60.5
78516;SHT31;67815;51.990;5.688;2023-03-12T02:48:43;5.1;59.7
78516;SHT31;67815;51.990;5.688;2023-03-12T02:51:12;5.1;60.0
78516;SHT31;67815;51.990;5.688;2023-03-12T02:53:42;5.1;60.2
78516;SHT31;67815;51.990;5.688;2023-03-12T02:56:13;5.1;59.4
78516;SHT31;67815;51.990;5.688;2023-03-12T02:58:42;5.2;59.7
78516;SHT31;67815;51.990;5.688;2023-03-12T03:01:12;5.2;60.3
78516;SHT31;67815;51.990;5.688;2023-03-12T03:03:41;5.2;59.2
78516;SHT31;67815;51.990;5.688;2023-03-12T03:06:12;5.2;59.8
78516;SHT31;67815;51.990;5.688;2023-03-12T03:08:42;5.2;59.7
78516;SHT31;67815;51.990;5.688;2023-03-12T03:11:12;5.2;59.7
78516;SHT31;67815;51.990;5.688;2023-03-12T03:13:42;5.2;59.5
78516;SHT31;67815;51.990;5.688;2023-03-12T03:16:12;5.2;59.1
78516;SHT31;67815;51.990;5.688;2023-03-12T03:18:44;5.3;59.0
78516;SHT31;67815;51.990;5.688;2023-03-12T03:21:15;5.3;58.8
78516;SHT31;67815;51.990;5.688;2023-03-12T03:23:46;5.3;57.6
78516;SHT31;67815;51.990;5.688;2023-03-12T03:26:18;5.3;58.3
78516;SHT31;67815;51.990;5.688;2023-03-12T03:28:50;5.3;58.4
78516;SHT31;67815;51.990;5.688;2023-03-12T03:31:20;5.3;58.3
78516;SHT31;67815;51.990;5.688;2023-03-12T03:33:50;5.3;58.0
78516;SHT31;67815;51.990;5.688;2023-03-12T03:36:20;5.3;57.4
78516;SHT31;67815;51.990;5.688;2023-03-12T03:38:50;5.3;58.2
78516;SHT31;67815;51.990;5.688;2023-03-12T03:41:20;5.3;58.1
78516;SHT31;67815;51.990;5.688;2023-03-12T03:43:55;5.4;57.6
78516;SHT31;67815;51.990;5.688;2023-03-12T03:46:25;5.4;58.5
78516;SHT31;67815;51.990;5.688;2023-03-12T03:48:56;5.4;58.4
78516;SHT31;67815;51.990;5.688;2023-03-12T03:51:26;5.4;58.6
78516;SHT31;67815;51.990;5.688;2023-03-12T03:53:57;5.4;58.0
78516;SHT31;67815;51.990;5.688;2023-03-12T03:56:29;5.4;58.1
78516;SHT31;67815;51.990;5.688;2023-03-12T03:58:58;5.4;58.7
78516;SHT31;67815;51.990;5.688;2023-03-12T04:01:29;5.4;58.6
78516;SHT31;67815;51.990;5.688;2023-03-12T04:03:59;5.4;58.5
78516;SHT31;67815;51.990;5.688;2023-03-12T04:06:29;5.4;57.8
78516;SHT31;67815;51.990;5.688;2023-03-12T04:08:59;5.4;58.2
78516;SHT31;67815;51.990;5.688;2023-03-12T04:11:29;5.4;58.2
78516;SHT31;67815;51.990;5.688;2023-03-12T04:13:59;5.4;58.0
78516;SHT31;67815;51.990;5.688;2023-03-12T04:16:30;5.4;56.9
78516;SHT31;67815;51.990;5.688;2023-03-12T04:19:00;5.4;57.4
78516;SHT31;67815;51.990;5.688;2023-03-12T04:21:30;5.4;58.2
78516;SHT31;67815;51.990;5.688;2023-03-12T04:24:00;5.4;58.6
78516;SHT31;67815;51.990;5.688;2023-03-12T04:26:29;5.3;58.0
78516;SHT31;67815;51.990;5.688;2023-03-12T04:29:00;5.3;58.6
78516;SHT31;67815;51.990;5.688;2023-03-12T04:31:30;5.3;58.4
78516;SHT31;67815;51.990;5.688;2023-03-12T04:34:00;5.3;59.2
78516;SHT31;67815;51.990;5.688;2023-03-12T04:36:29;5.4;58.6
78516;SHT31;67815;51.990;5.688;2023-03-12T04:38:59;5.4;58.4
78516;SHT31;67815;51.990;5.688;2023-03-12T04:41:30;5.4;58.8
78516;SHT31;67815;51.990;5.688;2023-03-12T04:44:00;5.4;58.9
78516;SHT31;67815;51.990;5.688;2023-03-12T04:46:30;5.4;59.3
78516;SHT31;67815;51.990;5.688;2023-03-12T04:49:00;5.4;59.9
78516;SHT31;67815;51.990;5.688;2023-03-12T04:51:31;5.4;60.2
78516;SHT31;67815;51.990;5.688;2023-03-12T04:54:01;5.4;60.3
78516;SHT31;67815;51.990;5.688;2023-03-12T04:56:31;5.4;61.2
78516;SHT31;67815;51.990;5.688;2023-03-12T04:59:02;5.4;61.3
78516;SHT31;67815;51.990;5.688;2023-03-12T05:01:34;5.4;61.3
78516;SHT31;67815;51.990;5.688;2023-03-12T05:04:05;5.4;61.2
78516;SHT31;67815;51.990;5.688;2023-03-12T05:06:35;5.4;61.3
78516;SHT31;67815;51.990;5.688;2023-03-12T05:09:06;5.4;61.7
78516;SHT31;67815;51.990;5.688;2023-03-12T05:11:36;5.4;61.5
78516;SHT31;67815;51.990;5.688;2023-03-12T05:14:08;5.4;61.7
78516;SHT31;67815;51.990;5.688;2023-03-12T05:16:38;5.4;61.4
78516;SHT31;67815;51.990;5.688;2023-03-12T05:19:08;5.4;61.2
78516;SHT31;67815;51.990;5.688;2023-03-12T05:21:38;5.4;61.3
78516;SHT31;67815;51.990;5.688;2023-03-12T05:24:10;5.4;61.9
78516;SHT31;67815;51.990;5.688;2023-03-12T05:26:41;5.4;61.8
78516;SHT31;67815;51.990;5.688;2023-03-12T05:29:11;5.4;62.1
78516;SHT31;67815;51.990;5.688;2023-03-12T05:31:40;5.4;62.1
78516;SHT31;67815;51.990;5.688;2023-03-12T05:34:12;5.4;61.6
78516;SHT31;67815;51.990;5.688;2023-03-12T05:36:42;5.4;62.5
78516;SHT31;67815;51.990;5.688;2023-03-12T05:39:12;5.4;62.8
78516;SHT31;67815;51.990;5.688;2023-03-12T05:41:43;5.4;62.5
78516;SHT31;67815;51.990;5.688;2023-03-12T05:44:14;5.4;62.8
78516;SHT31;67815;51.990;5.688;2023-03-12T05:46:43;5.4;62.9
78516;SHT31;67815;51.990;5.688;2023-03-12T05:49:15;5.4;61.7
78516;SHT31;67815;51.990;5.688;2023-03-12T05:51:45;5.4;62.3
78516;SHT31;67815;51.990;5.688;2023-03-12T05:54:16;5.4;62.4
78516;SHT31;67815;51.990;5.688;2023-03-12T05:56:46;5.4;62.6
78516;SHT31;67815;51.990;5.688;2023-03-12T05:59:16;5.4;62.7
78516;SHT31;67815;51.990;5.688;2023-03-12T06:01:47;5.4;62.0
78516;SHT31;67815;51.990;5.688;2023-03-12T06:04:17;5.4;63.1
78516;SHT31;67815;51.990;5.688;2023-03-12T06:06:48;5.4;63.2
78516;SHT31;67815;51.990;5.688;2023-03-12T06:09:18;5.4;62.4
78516;SHT31;67815;51.990;5.688;2023-03-12T06:11:47;5.4;62.9
78516;SHT31;67815;51.990;5.688;2023-03-12T06:14:17;5.5;63.6
78516;SHT31;67815;51.990;5.688;2023-03-12T06:16:46;5.5;63.7
78516;SHT31;67815;51.990;5.688;2023-03-12T06:19:16;5.5;64.3
78516;SHT31;67815;51.990;5.688;2023-03-12T06:21:46;5.5;64.8
78516;SHT31;67815;51.990;5.688;2023-03-12T06:24:15;5.5;65.2
78516;SHT31;67815;51.990;5.688;2023-03-12T06:26:45;5.5;65.4
78516;SHT31;67815;51.990;5.688;2023-03-12T06:29:14;5.5;65.3
78516;SHT31;67815;51.990;5.688;2023-03-12T06:31:44;5.5;65.6
78516;SHT31;67815;51.990;5.688;2023-03-12T06:34:14;5.5;65.9
78516;SHT31;67815;51.990;5.688;2023-03-12T06:36:44;5.5;65.3
78516;SHT31;67815;51.990;5.688;2023-03-12T06:39:14;5.5;65.5
78516;SHT31;67815;51.990;5.688;2023-03-12T06:41:45;5.5;65.7
78516;SHT31;67815;51.990;5.688;2023-03-12T06:44:14;5.5;65.9
78516;SHT31;67815;51.990;5.688;2023-03-12T06:46:44;5.5;65.7
78516;SHT31;67815;51.990;5.688;2023-03-12T06:49:15;5.4;66.1
78516;SHT31;67815;51.990;5.688;2023-03-12T06:51:44;5.4;66.2
78516;SHT31;67815;51.990;5.688;2023-03-12T06:54:14;5.4;66.6
78516;SHT31;67815;51.990;5.688;2023-03-12T06:56:46;5.4;66.9
78516;SHT31;67815;51.990;5.688;2023-03-12T06:59:15;5.4;67.2
78516;SHT31;67815;51.990;5.688;2023-03-12T07:01:48;5.4;67.6
78516;SHT31;67815;51.990;5.688;2023-03-12T07:04:18;5.4;68.1
78516;SHT31;67815;51.990;5.688;2023-03-12T07:06:48;5.4;68.3
78516;SHT31;67815;51.990;5.688;2023-03-12T07:09:19;5.4;68.9
78516;SHT31;67815;51.990;5.688;2023-03-12T07:11:48;5.4;69.2
78516;SHT31;67815;51.990;5.688;2023-03-12T07:14:18;5.5;69.5
78516;SHT31;67815;51.990;5.688;2023-03-12T07:16:49;5.5;70.0
78516;SHT31;67815;51.990;5.688;2023-03-12T07:19:18;5.5;70.2
78516;SHT31;67815;51.990;5.688;2023-03-12T07:21:48;5.5;70.6
78516;SHT31;67815;51.990;5.688;2023-03-12T07:24:17;5.5;70.5
78516;SHT31;67815;51.990;5.688;2023-03-12T07:26:47;5.5;71.2
78516;SHT31;67815;51.990;5.688;2023-03-12T07:29:19;5.5;71.1
78516;SHT31;67815;51.990;5.688;2023-03-12T07:31:48;5.5;71.6
78516;SHT31;67815;51.990;5.688;2023-03-12T07:34:20;5.5;71.8
78516;SHT31;67815;51.990;5.688;2023-03-12T07:36:49;5.5;72.0
78516;SHT31;67815;51.990;5.688;2023-03-12T07:39:19;5.5;72.2
78516;SHT31;67815;51.990;5.688;2023-03-12T07:41:49;5.5;72.2
78516;SHT31;67815;51.990;5.688;2023-03-12T07:44:20;5.5;72.5
78516;SHT31;67815;51.990;5.688;2023-03-12T07:46:53;5.6;72.4
78516;SHT31;67815;51.990;5.688;2023-03-12T07:49:22;5.6;72.6
78516;SHT31;67815;51.990;5.688;2023-03-12T07:51:53;5.6;72.7
78516;SHT31;67815;51.990;5.688;2023-03-12T07:54:23;5.6;72.9
78516;SHT31;67815;51.990;5.688;2023-03-12T07:56:56;5.6;73.2
78516;SHT31;67815;51.990;5.688;2023-03-12T07:59:26;5.6;73.4
78516;SHT31;67815;51.990;5.688;2023-03-12T08:01:56;5.5;73.8
78516;SHT31;67815;51.990;5.688;2023-03-12T08:04:26;5.5;74.0
78516;SHT31;67815;51.990;5.688;2023-03-12T08:06:56;5.5;74.3
78516;SHT31;67815;51.990;5.688;2023-03-12T08:09:25;5.6;74.5
78516;SHT31;67815;51.990;5.688;2023-03-12T08:11:55;5.6;74.7
78516;SHT31;67815;51.990;5.688;2023-03-12T08:14:25;5.6;74.6
78516;SHT31;67815;51.990;5.688;2023-03-12T08:16:58;5.6;75.1
78516;SHT31;67815;51.990;5.688;2023-03-12T08:19:28;5.6;75.0
78516;SHT31;67815;51.990;5.688;2023-03-12T08:21:58;5.7;75.1
78516;SHT31;67815;51.990;5.688;2023-03-12T08:24:29;5.7;75.2
78516;SHT31;67815;51.990;5.688;2023-03-12T08:27:01;5.7;75.3
78516;SHT31;67815;51.990;5.688;2023-03-12T08:29:30;5.7;75.3
78516;SHT31;67815;51.990;5.688;2023-03-12T08:32:00;5.8;75.5
78516;SHT31;67815;51.990;5.688;2023-03-12T08:34:30;5.8;75.9
78516;SHT31;67815;51.990;5.688;2023-03-12T08:37:00;5.8;76.1
78516;SHT31;67815;51.990;5.688;2023-03-12T08:39:30;5.8;76.2
78516;SHT31;67815;51.990;5.688;2023-03-12T08:42:00;5.8;76.1
78516;SHT31;67815;51.990;5.688;2023-03-12T08:44:31;5.9;76.6
78516;SHT31;67815;51.990;5.688;2023-03-12T08:47:00;5.9;76.5
78516;SHT31;67815;51.990;5.688;2023-03-12T08:49:30;5.9;76.7
78516;SHT31;67815;51.990;5.688;2023-03-12T08:52:02;6.0;76.6
78516;SHT31;67815;51.990;5.688;2023-03-12T08:54:33;6.0;76.6
78516;SHT31;67815;51.990;5.688;2023-03-12T08:57:03;6.0;76.8
78516;SHT31;67815;51.990;5.688;2023-03-12T08:59:32;6.1;76.9
78516;SHT31;67815;51.990;5.688;2023-03-12T09:02:02;6.1;76.9
78516;SHT31;67815;51.990;5.688;2023-03-12T09:04:31;6.2;77.0
78516;SHT31;67815;51.990;5.688;2023-03-12T09:07:01;6.2;77.1
78516;SHT31;67815;51.990;5.688;2023-03-12T09:09:33;6.2;77.0
78516;SHT31;67815;51.990;5.688;2023-03-12T09:12:03;6.3;77.1
78516;SHT31;67815;51.990;5.688;2023-03-12T09:14:32;6.3;77.4
78516;SHT31;67815;51.990;5.688;2023-03-12T09:17:02;6.3;77.2
78516;SHT31;67815;51.990;5.688;2023-03-12T09:19:32;6.4;77.2
78516;SHT31;67815;51.990;5.688;2023-03-12T09:22:01;6.4;77.7
78516;SHT31;67815;51.990;5.688;2023-03-12T09:24:31;6.4;77.7
78516;SHT31;67815;51.990;5.688;2023-03-12T09:27:00;6.5;77.9
78516;SHT31;67815;51.990;5.688;2023-03-12T09:29:31;6.5;78.0
78516;SHT31;67815;51.990;5.688;2023-03-12T09:32:03;6.5;77.8
78516;SHT31;67815;51.990;5.688;2023-03-12T09:34:33;6.6;78.0
78516;SHT31;67815;51.990;5.688;2023-03-12T09:37:02;6.6;78.2
78516;SHT31;67815;51.990;5.688;2023-03-12T09:39:32;6.7;78.4
78516;SHT31;67815;51.990;5.688;2023-03-12T09:42:02;6.7;78.4
78516;SHT31;67815;51.990;5.688;2023-03-12T09:44:37;6.7;78.2
78516;SHT31;67815;51.990;5.688;2023-03-12T09:47:19;6.8;78.4
78516;SHT31;67815;51.990;5.688;2023-03-12T09:49:55;6.8;79.0
78516;SHT31;67815;51.990;5.688;2023-03-12T09:52:33;6.9;79.4
78516;SHT31;67815;51.990;5.688;2023-03-12T09:55:07;7.0;79.1
78516;SHT31;67815;51.990;5.688;2023-03-12T09:57:42;7.0;79.5
78516;SHT31;67815;51.990;5.688;2023-03-12T10:00:15;7.1;79.3
78516;SHT31;67815;51.990;5.688;2023-03-12T10:02:52;7.2;79.8
78516;SHT31;67815;51.990;5.688;2023-03-12T10:05:33;7.2;79.8
78516;SHT31;67815;51.990;5.688;2023-03-12T10:08:15;7.3;80.0
78516;SHT31;67815;51.990;5.688;2023-03-12T10:10:55;7.3;79.8
78516;SHT31;67815;51.990;5.688;2023-03-12T10:13:45;7.4;80.6
78516;SHT31;67815;51.990;5.688;2023-03-12T10:16:32;7.4;80.7
78516;SHT31;67815;51.990;5.688;2023-03-12T10:19:16;7.4;80.0
78516;SHT31;67815;51.990;5.688;2023-03-12T10:21:59;7.5;79.9
78516;SHT31;67815;51.990;5.688;2023-03-12T10:24:37;7.6;80.0
78516;SHT31;67815;51.990;5.688;2023-03-12T10:27:14;7.6;80.1
78516;SHT31;67815;51.990;5.688;2023-03-12T10:29:47;7.7;80.1
78516;SHT31;67815;51.990;5.688;2023-03-12T10:32:22;7.7;79.7
78516;SHT31;67815;51.990;5.688;2023-03-12T10:34:56;7.8;80.4
78516;SHT31;67815;51.990;5.688;2023-03-12T10:37:28;7.8;80.4
78516;SHT31;67815;51.990;5.688;2023-03-12T10:40:00;7.9;80.3
78516;SHT31;67815;51.990;5.688;2023-03-12T10:42:32;7.9;80.3
78516;SHT31;67815;51.990;5.688;2023-03-12T10:45:15;8.0;80.5
78516;SHT31;67815;51.990;5.688;2023-03-12T10:47:49;8.0;80.7
78516;SHT31;67815;51.990;5.688;2023-03-12T10:50:26;8.1;81.1
78516;SHT31;67815;51.990;5.688;2023-03-12T10:53:16;8.2;81.6
78516;SHT31;67815;51.990;5.688;2023-03-12T10:56:03;8.2;81.6
78516;SHT31;67815;51.990;5.688;2023-03-12T10:58:36;8.3;83.0
78516;SHT31;67815;51.990;5.688;2023-03-12T11:01:18;8.4;82.8
78516;SHT31;67815;51.990;5.688;2023-03-12T11:03:49;8.4;83.7
78516;SHT31;67815;51.990;5.688;2023-03-12T11:06:26;8.5;84.1
78516;SHT31;67815;51.990;5.688;2023-03-12T11:09:05;8.6;84.1
78516;SHT31;67815;51.990;5.688;2023-03-12T11:11:36;8.6;85.0
78516;SHT31;67815;51.990;5.688;2023-03-12T11:14:17;8.7;84.1
78516;SHT31;67815;51.990;5.688;2023-03-12T11:16:47;8.8;85.0
78516;SHT31;67815;51.990;5.688;2023-03-12T11:19:29;8.8;85.3
78516;SHT31;67815;51.990;5.688;2023-03-12T11:22:01;8.9;85.8
78516;SHT31;67815;51.990;5.688;2023-03-12T11:24:32;9.0;85.4
78516;SHT31;67815;51.990;5.688;2023-03-12T11:27:06;9.0;85.4
78516;SHT31;67815;51.990;5.688;2023-03-12T11:29:43;9.1;84.5
78516;SHT31;67815;51.990;5.688;2023-03-12T11:32:17;9.2;85.3
78516;SHT31;67815;51.990;5.688;2023-03-12T11:34:49;9.2;84.7
78516;SHT31;67815;51.990;5.688;2023-03-12T11:37:34;9.3;84.7
78516;SHT31;67815;51.990;5.688;2023-03-12T11:40:20;9.4;84.5
78516;SHT31;67815;51.990;5.688;2023-03-12T11:43:09;9.4;84.4
78516;SHT31;67815;51.990;5.688;2023-03-12T11:45:50;9.5;84.0
78516;SHT31;67815;51.990;5.688;2023-03-12T11:48:24;9.6;83.7
78516;SHT31;67815;51.990;5.688;2023-03-12T11:51:09;9.6;83.1
78516;SHT31;67815;51.990;5.688;2023-03-12T11:54:41;9.7;84.0
78516;SHT31;67815;51.990;5.688;2023-03-12T11:57:20;9.8;84.0
78516;SHT31;67815;51.990;5.688;2023-03-12T12:00:03;9.8;83.3
78516;SHT31;67815;51.990;5.688;2023-03-12T12:02:55;9.9;84.3
78516;SHT31;67815;51.990;5.688;2023-03-12T12:05:32;9.9;84.1
78516;SHT31;67815;51.990;5.688;2023-03-12T12:08:12;10.0;84.3
78516;SHT31;67815;51.990;5.688;2023-03-12T12:10:55;10.0;83.4
78516;SHT31;67815;51.990;5.688;2023-03-12T12:13:36;10.1;83.3
78516;SHT31;67815;51.990;5.688;2023-03-12T12:16:25;10.1;82.6
78516;SHT31;67815;51.990;5.688;2023-03-12T12:19:13;10.2;83.1
78516;SHT31;67815;51.990;5.688;2023-03-12T12:22:01;10.2;82.8
78516;SHT31;67815;51.990;5.688;2023-03-12T12:24:50;10.3;83.3
78516;SHT31;67815;51.990;5.688;2023-03-12T12:27:25;10.3;83.2
78516;SHT31;67815;51.990;5.688;2023-03-12T12:30:08;10.3;82.5
78516;SHT31;67815;51.990;5.688;2023-03-12T12:32:55;10.4;82.5
78516;SHT31;67815;51.990;5.688;2023-03-12T12:35:33;10.4;82.0
78516;SHT31;67815;51.990;5.688;2023-03-12T12:38:12;10.4;81.2
78516;SHT31;67815;51.990;5.688;2023-03-12T12:40:48;10.5;81.3
78516;SHT31;67815;51.990;5.688;2023-03-12T12:43:25;10.5;81.2
78516;SHT31;67815;51.990;5.688;2023-03-12T12:45:59;10.5;81.3
78516;SHT31;67815;51.990;5.688;2023-03-12T12:48:37;10.6;81.4
78516;SHT31;67815;51.990;5.688;2023-03-12T12:51:08;10.6;81.5
78516;SHT31;67815;51.990;5.688;2023-03-12T12:53:45;10.6;81.2
78516;SHT31;67815;51.990;5.688;2023-03-12T12:56:22;10.6;80.8
78516;SHT31;67815;51.990;5.688;2023-03-12T12:59:03;10.7;81.4
78516;SHT31;67815;51.990;5.688;2023-03-12T13:01:36;10.7;80.9
78516;SHT31;67815;51.990;5.688;2023-03-12T13:04:12;10.7;80.4
78516;SHT31;67815;51.990;5.688;2023-03-12T13:06:55;10.7;80.3
78516;SHT31;67815;51.990;5.688;2023-03-12T13:09:37;10.7;80.2
78516;SHT31;67815;51.990;5.688;2023-03-12T13:12:13;10.8;80.1
78516;SHT31;67815;51.990;5.688;2023-03-12T13:14:44;10.8;80.0
78516;SHT31;67815;51.990;5.688;2023-03-12T13:17:24;10.8;80.1
78516;SHT31;67815;51.990;5.688;2023-03-12T13:19:59;10.8;79.6
78516;SHT31;67815;51.990;5.688;2023-03-12T13:22:54;10.8;80.2
78516;SHT31;67815;51.990;5.688;2023-03-12T13:25:33;10.9;79.9
78516;SHT31;67815;51.990;5.688;2023-03-12T13:28:28;10.9;79.6
78516;SHT31;67815;51.990;5.688;2023-03-12T13:30:59;10.9;79.7
78516;SHT31;67815;51.990;5.688;2023-03-12T13:33:42;11.0;78.9
78516;SHT31;67815;51.990;5.688;2023-03-12T13:36:22;11.0;79.8
78516;SHT31;67815;51.990;5.688;2023-03-12T13:38:56;11.0;78.8
78516;SHT31;67815;51.990;5.688;2023-03-12T13:41:37;11.1;78.1
78516;SHT31;67815;51.990;5.688;2023-03-12T13:44:31;11.1;76.8
78516;SHT31;67815;51.990;5.688;2023-03-12T13:47:19;11.1;77.5
78516;SHT31;67815;51.990;5.688;2023-03-12T13:49:56;11.1;76.6
78516;SHT31;67815;51.990;5.688;2023-03-12T13:52:29;11.2;76.9
78516;SHT31;67815;51.990;5.688;2023-03-12T13:55:05;11.2;76.0
78516;SHT31;67815;51.990;5.688;2023-03-12T13:57:40;11.2;76.6
78516;SHT31;67815;51.990;5.688;2023-03-12T14:00:16;11.3;76.7
78516;SHT31;67815;51.990;5.688;2023-03-12T14:02:51;11.3;76.3
78516;SHT31;67815;51.990;5.688;2023-03-12T14:05:22;11.4;75.2
78516;SHT31;67815;51.990;5.688;2023-03-12T14:08:44;11.4;75.8
78516;SHT31;67815;51.990;5.688;2023-03-12T14:11:22;11.5;75.0
78516;SHT31;67815;51.990;5.688;2023-03-12T14:18:33;11.6;74.2
78516;SHT31;67815;51.990;5.688;2023-03-12T14:21:08;11.7;72.0
78516;SHT31;67815;51.990;5.688;2023-03-12T14:23:45;11.7;72.3
78516;SHT31;67815;51.990;5.688;2023-03-12T14:26:19;11.8;72.6
78516;SHT31;67815;51.990;5.688;2023-03-12T14:28:56;11.8;74.2
78516;SHT31;67815;51.990;5.688;2023-03-12T14:31:28;11.9;72.9
78516;SHT31;67815;51.990;5.688;2023-03-12T14:34:04;11.9;70.6
78516;SHT31;67815;51.990;5.688;2023-03-12T14:36:39;11.9;70.7
78516;SHT31;67815;51.990;5.688;2023-03-12T14:39:22;11.9;69.3
78516;SHT31;67815;51.990;5.688;2023-03-12T14:41:59;12.0;69.1
78516;SHT31;67815;51.990;5.688;2023-03-12T14:44:33;12.0;70.1
78516;SHT31;67815;51.990;5.688;2023-03-12T14:47:05;12.0;69.9
78516;SHT31;67815;51.990;5.688;2023-03-12T14:49:41;12.0;66.5
78516;SHT31;67815;51.990;5.688;2023-03-12T14:52:13;12.0;68.2
78516;SHT31;67815;51.990;5.688;2023-03-12T14:54:54;12.0;66.8
78516;SHT31;67815;51.990;5.688;2023-03-12T14:57:25;12.0;67.4
78516;SHT31;67815;51.990;5.688;2023-03-12T14:59:56;12.0;65.1
78516;SHT31;67815;51.990;5.688;2023-03-12T15:02:29;12.1;68.7
78516;SHT31;67815;51.990;5.688;2023-03-12T15:05:01;12.1;68.1
78516;SHT31;67815;51.990;5.688;2023-03-12T15:07:35;12.1;68.8
78516;SHT31;67815;51.990;5.688;2023-03-12T15:10:19;12.1;68.2
78516;SHT31;67815;51.990;5.688;2023-03-12T15:12:50;12.1;67.6
78516;SHT31;67815;51.990;5.688;2023-03-12T15:15:40;12.2;68.6
78516;SHT31;67815;51.990;5.688;2023-03-12T15:18:15;12.2;66.2
78516;SHT31;67815;51.990;5.688;2023-03-12T15:20:48;12.2;66.1
78516;SHT31;67815;51.990;5.688;2023-03-12T15:23:21;12.3;66.1
78516;SHT31;67815;51.990;5.688;2023-03-12T15:26:10;12.3;64.4
78516;SHT31;67815;51.990;5.688;2023-03-12T15:28:41;12.3;64.6
78516;SHT31;67815;51.990;5.688;2023-03-12T15:31:13;12.3;65.1
78516;SHT31;67815;51.990;5.688;2023-03-12T15:33:44;12.3;65.6
78516;SHT31;67815;51.990;5.688;2023-03-12T15:36:28;12.3;64.1
78516;SHT31;67815;51.990;5.688;2023-03-12T15:39:02;12.3;65.2
78516;SHT31;67815;51.990;5.688;2023-03-12T15:41:42;12.3;64.1
78516;SHT31;67815;51.990;5.688;2023-03-12T15:44:18;12.3;64.3
78516;SHT31;67815;51.990;5.688;2023-03-12T15:46:51;12.3;64.4
78516;SHT31;67815;51.990;5.688;2023-03-12T15:49:26;12.3;66.1
78516;SHT31;67815;51.990;5.688;2023-03-12T15:52:00;12.3;65.8
78516;SHT31;67815;51.990;5.688;2023-03-12T15:54:32;12.3;64.8
78516;SHT31;67815;51.990;5.688;2023-03-12T15:57:19;12.3;67.0
78516;SHT31;67815;51.990;5.688;2023-03-12T16:00:30;12.3;64.7
78516;SHT31;67815;51.990;5.688;2023-03-12T16:03:01;12.4;65.3
78516;SHT31;67815;51.990;5.688;2023-03-12T16:05:35;12.4;64.2
78516;SHT31;67815;51.990;5.688;2023-03-12T16:08:14;12.4;65.0
78516;SHT31;67815;51.990;5.688;2023-03-12T16:10:45;12.4;65.7
78516;SHT31;67815;51.990;5.688;2023-03-12T16:13:17;12.4;65.3
78516;SHT31;67815;51.990;5.688;2023-03-12T16:15:48;12.4;65.1
78516;SHT31;67815;51.990;5.688;2023-03-12T16:18:20;12.4;64.6
78516;SHT31;67815;51.990;5.688;2023-03-12T16:20:52;12.4;65.1
78516;SHT31;67815;51.990;5.688;2023-03-12T16:23:22;12.4;64.9
78516;SHT31;67815;51.990;5.688;2023-03-12T16:25:52;12.4;66.0
78516;SHT31;67815;51.990;5.688;2023-03-12T16:28:24;12.4;65.8
78516;SHT31;67815;51.990;5.688;2023-03-12T16:30:54;12.3;65.8
78516;SHT31;67815;51.990;5.688;2023-03-12T16:33:24;12.3;65.8
78516;SHT31;67815;51.990;5.688;2023-03-12T16:35:54;12.3;65.8
78516;SHT31;67815;51.990;5.688;2023-03-12T16:38:27;12.3;66.1
78516;SHT31;67815;51.990;5.688;2023-03-12T16:40:57;12.3;66.9
78516;SHT31;67815;51.990;5.688;2023-03-12T16:43:29;12.3;65.4
78516;SHT31;67815;51.990;5.688;2023-03-12T16:46:07;12.3;66.1
78516;SHT31;67815;51.990;5.688;2023-03-12T16:48:37;12.3;66.3
78516;SHT31;67815;51.990;5.688;2023-03-12T16:51:14;12.3;65.5
78516;SHT31;67815;51.990;5.688;2023-03-12T16:53:43;12.3;66.3
78516;SHT31;67815;51.990;5.688;2023-03-12T16:56:17;12.3;66.1
78516;SHT31;67815;51.990;5.688;2023-03-12T16:58:48;12.3;65.7